Weather reports worldwide

Advertisment
Monte Terminillo, Italy (16219): temperature & dewpoint: 16.07.2019 04:00:00 - 22.07.2019 04:00:00 (CEST)Monte Terminillo, Italy (16219): wind speed: 16.07.2019 04:00:00 - 22.07.2019 04:00:00 (CEST)Monte Terminillo, Italy (16219): wind direction: 16.07.2019 04:00:00 - 22.07.2019 04:00:00 (CEST)Monte Terminillo, Italy (16219): sunshine duration: 16.07.2019 04:00:00 - 22.07.2019 04:00:00 (CEST)
Date & Time tt [°C] td [°C] ff [km/h] ff [kn] dd sd [min]
22.07.2019 04:00:00 16,5 3,4 4 2 N 0
22.07.2019 03:00:00 16,3 5,0 4 2 N 0
22.07.2019 02:00:00 16,4 3,7 4 2 N 0
22.07.2019 01:00:00 16,7 2,6 15 8 N 0
22.07.2019 00:00:00 16,4 4,0 15 8 N 0
21.07.2019 23:00:00 16,8 5,8 21 11 NNW 0
21.07.2019 22:00:00 17,0 7,3 22 12 NNW 0
21.07.2019 21:00:00 17,5 8,4 11 6 NW 30
21.07.2019 20:00:00 18,3 6,7 16 9 NW 60
21.07.2019 19:00:00 19,2 6,4 15 8 WNW 60
21.07.2019 18:00:00 20,1 8,2 16 9 WNW 60
21.07.2019 17:00:00 20,5 9,4 13 7 WNW 54
21.07.2019 16:00:00 20,9 7,5 18 10 WNW 60
21.07.2019 15:00:00 21,6 9,3 24 13 WNW 60
21.07.2019 14:00:00 22,0 10,8 15 8 WNW 60
21.07.2019 13:00:00 23,2 10,8 11 6 N 60
21.07.2019 12:00:00 24,2 7,7 9 5 WNW 60
21.07.2019 11:00:00 24,0 9,3 13 7 NW 60
21.07.2019 10:00:00 22,9 10,6 13 7 NNW 60
21.07.2019 09:00:00 20,4 10,5 11 6 NW 60
21.07.2019 08:00:00 14,9 9,7 11 6 WNW 60
21.07.2019 07:00:00 14,3 10,6 11 6 NW 30
21.07.2019 06:00:00 14,5 10,0 9 5 NW 0
21.07.2019 05:00:00 14,7 9,3 8 4 NW 0
21.07.2019 04:00:00 14,6 10,9 5 3 WNW 0
21.07.2019 03:00:00 14,6 10,9 5 3 SW 0
21.07.2019 02:00:00 14,7 11,2 4 2 SW 0
21.07.2019 01:00:00 15,0 10,4 5 3 SE 0
21.07.2019 00:00:00 14,5 11,2 4 2 N 0
20.07.2019 23:00:00 14,4 12,0 15 8 N 0
20.07.2019 22:00:00 14,8 12,6 15 8 NNW 0
20.07.2019 21:00:00 15,5 11,8 13 7 NNW 6
20.07.2019 20:00:00 16,4 13,3 15 8 WNW 12
20.07.2019 19:00:00 16,6 10,5 4 2 N 10
20.07.2019 18:00:00 17,1 11,3 13 7 N 36
20.07.2019 17:00:00 17,2 12,1 18 10 NW 12
20.07.2019 16:00:00 18,0 10,7 13 7 WNW 13
20.07.2019 15:00:00 18,8 12,3 11 6 W 18
20.07.2019 14:00:00 18,6 11,9 11 6 WNW 19
20.07.2019 13:00:00 17,9 11,8 11 6 WNW 12
20.07.2019 12:00:00 18,9 11,5 4 2 N 12
20.07.2019 11:00:00 22,4 11,4 5 3 W 24
20.07.2019 10:00:00 21,9 10,0 5 3 N 60
20.07.2019 09:00:00 20,2 9,6 5 3 NNW 60
20.07.2019 08:00:00 14,1 9,7 8 4 N 60
20.07.2019 07:00:00 12,9 8,7 8 4 NNW 33
20.07.2019 06:00:00 13,3 7,7 8 4 WNW 0
20.07.2019 05:00:00 13,7 8,0 2 1 N 0
20.07.2019 04:00:00 13,3 8,7 9 5 ESE 0
20.07.2019 03:00:00 12,9 8,7 5 3 SE 0
20.07.2019 02:00:00 13,0 8,2 5 3 N 0
20.07.2019 01:00:00 13,2 8,5 13 7 NW 0
20.07.2019 00:00:00 13,4 8,7 11 6 NW 0
19.07.2019 23:00:00 13,2 8,5 4 2 N 0
19.07.2019 22:00:00 12,7 8,3 4 2 N 0
19.07.2019 21:00:00 12,7 9,2 16 9 NNW 30
19.07.2019 20:00:00 12,3 10,0 8 4 SW 0
19.07.2019 19:00:00 15,0 12,5 4 2 N 7
19.07.2019 18:00:00 13,9 12,0 5 3 N 18
19.07.2019 17:00:00 15,2 10,3 8 4 NW 0
19.07.2019 16:00:00 18,3 10,6 11 6 N 12
19.07.2019 15:00:00 17,0 10,4 16 9 WNW 48
19.07.2019 14:00:00 16,7 11,2 11 6 NW 12
19.07.2019 13:00:00 16,3 9,8 11 6 NNW 18
19.07.2019 12:00:00 19,3 8,2 4 2 N 18
19.07.2019 11:00:00 18,8 8,8 5 3 N 30
19.07.2019 10:00:00 19,0 7,8 4 2 N 36
19.07.2019 09:00:00 18,6 7,7 4 2 N 60
19.07.2019 08:00:00 13,6 7,1 8 4 N 60
19.07.2019 07:00:00 12,6 6,9 4 2 N 34
19.07.2019 06:00:00 12,4 7,8 5 3 ENE 0
19.07.2019 05:00:00 12,5 8,0 8 4 N 0
19.07.2019 04:00:00 12,6 8,4 11 6 N 0
19.07.2019 03:00:00 12,5 8,4 15 8 N 0
19.07.2019 02:00:00 12,5 8,8 13 7 N 0
19.07.2019 01:00:00 12,3 9,2 13 7 NE 0
19.07.2019 00:00:00 12,2 8,3 21 11 N 0
18.07.2019 23:00:00 12,3 9,3 22 12 NNW 0
18.07.2019 22:00:00 12,7 10,1 21 11 NNW 0
18.07.2019 21:00:00 13,5 11,6 16 9 NW 0
18.07.2019 20:00:00 14,9 11,3 4 2 N 0
18.07.2019 19:00:00 16,2 7,4 9 5 N 12
18.07.2019 18:00:00 16,3 8,2 15 8 NW 24
18.07.2019 17:00:00 16,5 8,8 15 8 WNW 12
18.07.2019 16:00:00 16,8 7,9 15 8 WNW 1
18.07.2019 15:00:00 17,1 9,7 13 7 N 12
18.07.2019 14:00:00 16,0 10,5 15 8 WNW 12
18.07.2019 13:00:00 17,4 10,7 4 2 N 3
18.07.2019 12:00:00 20,5 10,0 5 3 N 24
18.07.2019 11:00:00 19,9 7,4 8 4 - 48
18.07.2019 10:00:00 19,6 6,7 21 11 NNW 60
18.07.2019 09:00:00 17,6 6,6 18 10 N 60
18.07.2019 08:00:00 13,1 6,3 24 13 NNE 60
18.07.2019 07:00:00 11,0 6,7 22 12 N 36
18.07.2019 06:00:00 10,9 7,0 21 11 NNW 0
18.07.2019 05:00:00 11,1 6,2 18 10 NNW 0
18.07.2019 04:00:00 11,4 5,8 16 9 NNW 0
18.07.2019 03:00:00 11,1 7,6 21 11 NNW 0
18.07.2019 02:00:00 11,2 8,4 21 11 NNW 0
18.07.2019 01:00:00 11,6 8,4 18 10 NNW 0
18.07.2019 00:00:00 11,8 10,0 21 11 NNW 0
17.07.2019 23:00:00 12,3 11,6 16 9 NNW 0
17.07.2019 22:00:00 12,7 11,6 15 8 NW 0
17.07.2019 21:00:00 13,3 9,3 13 7 WNW 0
17.07.2019 20:00:00 14,6 7,8 4 2 N 2
17.07.2019 19:00:00 15,5 6,9 13 7 W 12
17.07.2019 18:00:00 16,9 6,9 16 9 NW 6
17.07.2019 17:00:00 17,2 7,4 9 5 N 18
17.07.2019 16:00:00 17,0 6,2 11 6 W 12
17.07.2019 15:00:00 17,3 6,7 5 3 N 42
17.07.2019 14:00:00 17,1 6,1 8 4 N 60
17.07.2019 13:00:00 15,6 3,7 4 2 N -
17.07.2019 12:00:00 14,2 1,8 11 6 N 60
17.07.2019 11:00:00 12,8 1,1 18 10 SE 60
17.07.2019 10:00:00 12,8 1,0 26 14 ESE 60
17.07.2019 09:00:00 12,8 -1,0 22 12 SE 60
17.07.2019 08:00:00 10,5 -0,5 22 12 N 60
17.07.2019 07:00:00 9,5 -1,1 4 2 N 35
17.07.2019 06:00:00 10,2 -4,2 4 2 W 0
17.07.2019 05:00:00 10,3 -2,0 9 5 ESE 0
17.07.2019 04:00:00 10,7 -2,7 8 4 ESE 0
17.07.2019 03:00:00 10,5 -4,0 11 6 ESE 0
17.07.2019 02:00:00 11,5 -12,1 9 5 SE 0
17.07.2019 01:00:00 10,8 -5,6 21 11 ESE 0
17.07.2019 00:00:00 9,2 4,5 18 10 ESE 0
16.07.2019 23:00:00 8,6 5,9 11 6 SE 0
16.07.2019 22:00:00 9,3 6,3 26 14 E 0
16.07.2019 21:00:00 - - - - - -
16.07.2019 20:00:00 10,5 6,4 29 16 E 60
16.07.2019 19:00:00 10,8 6,3 24 13 ESE 55
16.07.2019 18:00:00 11,5 5,2 22 12 E 54
16.07.2019 17:00:00 - - - - - -
16.07.2019 16:00:00 11,2 6,6 31 17 E 51
16.07.2019 15:00:00 11,9 5,6 22 12 ESE 12
16.07.2019 14:00:00 11,5 4,1 18 10 N 48
16.07.2019 13:00:00 11,2 4,8 35 19 E 60
16.07.2019 12:00:00 - - - - - -
16.07.2019 11:00:00 9,3 6,4 42 23 E 54
16.07.2019 10:00:00 10,0 5,8 50 27 E 60
16.07.2019 09:00:00 - - - - - -
16.07.2019 08:00:00 7,6 5,3 41 22 E 30
16.07.2019 07:00:00 7,0 5,5 44 24 E 30
16.07.2019 06:00:00 7,4 4,8 50 27 E 0
16.07.2019 05:00:00 7,7 4,1 50 27 E 0
16.07.2019 04:00:00 - - - - - -

tt = temperature
td = dewpoint
ff = wind speed
dd = wind direction
sd = sunshine duration

Next stations